Terminal Aerodrome Forecast
Issued by NWS St Louis, MO

Current Version | Previous Version | Text Only | Print | Product List | Glossary On
Versions: 1 2 3 4 5 6 7 8 9 10 11 12 13 14 15 16 17 18 19
000
FTUS43 KLSX 052300
TAFCOU
TAF
KCOU 052340Z 0600/0624 12007KT P6SM VCSH BKN100
     FM060200 14008KT P6SM SCT120
     FM061500 17013G23KT P6SM SCT040 BKN120
     FM061800 17013G23KT P6SM VCTS SCT050CB BKN120=

USA.gov is the U.S. government's official web portal to all federal, state and local government web resources and services.